sensor_id;sensor_type;location;lat;lon;timestamp;pressure;altitude;pressure_sealevel;temperature;humidity
53758;BME280;39674;59.860;30.672;2023-02-10T04:16:20;100168.69;;;-2.35;100.00
53758;BME280;39674;59.860;30.672;2023-02-10T06:18:53;99882.91;;;-2.03;100.00
53758;BME280;39674;59.860;30.672;2023-02-10T08:56:13;99555.91;;;-0.75;100.00
53758;BME280;39674;59.860;30.672;2023-02-10T11:43:11;99355.13;;;-0.98;100.00
53758;BME280;39674;59.860;30.672;2023-02-10T11:45:53;99361.22;;;-0.99;100.00
53758;BME280;39674;59.860;30.672;2023-02-10T12:34:22;99408.59;;;-0.94;100.00
53758;BME280;39674;59.860;30.672;2023-02-10T13:01:23;99438.09;;;-0.98;100.00
53758;BME280;39674;59.860;30.672;2023-02-10T13:05:39;99449.25;;;-0.96;100.00
53758;BME280;39674;59.860;30.672;2023-02-10T13:19:08;99479.56;;;-0.98;100.00
53758;BME280;39674;59.860;30.672;2023-02-10T13:21:51;99473.44;;;-0.95;100.00
53758;BME280;39674;59.860;30.672;2023-02-10T13:24:21;99464.91;;;-1.01;100.00
53758;BME280;39674;59.860;30.672;2023-02-10T13:27:02;99486.41;;;-0.97;100.00
53758;BME280;39674;59.860;30.672;2023-02-10T13:29:36;99492.47;;;-0.97;100.00
53758;BME280;39674;59.860;30.672;2023-02-10T13:32:30;99500.16;;;-0.93;100.00
53758;BME280;39674;59.860;30.672;2023-02-10T13:38:20;99506.84;;;-0.85;100.00
53758;BME280;39674;59.860;30.672;2023-02-10T13:41:25;99504.94;;;-0.76;100.00
53758;BME280;39674;59.860;30.672;2023-02-10T13:44:41;99517.75;;;-0.70;100.00
53758;BME280;39674;59.860;30.672;2023-02-10T13:47:24;99523.59;;;-0.62;100.00
53758;BME280;39674;59.860;30.672;2023-02-10T13:50:01;99530.50;;;-0.61;100.00
53758;BME280;39674;59.860;30.672;2023-02-10T13:53:24;99526.94;;;-0.57;100.00
53758;BME280;39674;59.860;30.672;2023-02-10T13:55:38;99580.50;;;-0.56;100.00
53758;BME280;39674;59.860;30.672;2023-02-10T14:04:03;99568.59;;;-0.63;100.00
53758;BME280;39674;59.860;30.672;2023-02-10T14:06:35;99572.03;;;-0.62;100.00
53758;BME280;39674;59.860;30.672;2023-02-10T14:09:20;99584.22;;;-0.66;100.00
53758;BME280;39674;59.860;30.672;2023-02-10T14:11:54;99589.47;;;-0.69;100.00
53758;BME280;39674;59.860;30.672;2023-02-10T14:14:27;99593.84;;;-0.71;100.00
53758;BME280;39674;59.860;30.672;2023-02-10T14:17:02;99593.91;;;-0.74;100.00
53758;BME280;39674;59.860;30.672;2023-02-10T14:19:46;99608.44;;;-0.67;100.00
53758;BME280;39674;59.860;30.672;2023-02-10T14:22:21;99599.84;;;-0.69;100.00
53758;BME280;39674;59.860;30.672;2023-02-10T14:24:52;99623.09;;;-0.65;100.00
53758;BME280;39674;59.860;30.672;2023-02-10T14:27:32;99615.34;;;-0.66;100.00
53758;BME280;39674;59.860;30.672;2023-02-10T14:30:05;99616.00;;;-0.58;100.00
53758;BME280;39674;59.860;30.672;2023-02-10T14:32:52;99627.16;;;-0.53;100.00
53758;BME280;39674;59.860;30.672;2023-02-10T14:39:15;99628.69;;;-0.45;100.00
53758;BME280;39674;59.860;30.672;2023-02-10T14:41:50;99637.38;;;-0.46;100.00
53758;BME280;39674;59.860;30.672;2023-02-10T14:44:39;99639.16;;;-0.49;100.00
53758;BME280;39674;59.860;30.672;2023-02-10T14:47:15;99646.78;;;-0.42;100.00
53758;BME280;39674;59.860;30.672;2023-02-10T14:49:49;99647.66;;;-0.43;100.00
53758;BME280;39674;59.860;30.672;2023-02-10T14:53:00;99666.69;;;-0.43;100.00
53758;BME280;39674;59.860;30.672;2023-02-10T14:55:33;99665.78;;;-0.42;100.00
53758;BME280;39674;59.860;30.672;2023-02-10T14:59:47;99687.41;;;-0.41;100.00
53758;BME280;39674;59.860;30.672;2023-02-10T15:02:00;99685.75;;;-0.45;100.00
53758;BME280;39674;59.860;30.672;2023-02-10T15:05:02;99708.16;;;-0.41;100.00
53758;BME280;39674;59.860;30.672;2023-02-10T15:07:31;99698.72;;;-0.44;100.00
53758;BME280;39674;59.860;30.672;2023-02-10T15:10:37;99713.41;;;-0.44;100.00
53758;BME280;39674;59.860;30.672;2023-02-10T15:13:40;99716.84;;;-0.42;100.00
53758;BME280;39674;59.860;30.672;2023-02-10T15:16:50;99721.13;;;-0.41;100.00
53758;BME280;39674;59.860;30.672;2023-02-10T15:19:21;99710.75;;;-0.41;100.00
53758;BME280;39674;59.860;30.672;2023-02-10T15:21:58;99727.25;;;-0.45;100.00
53758;BME280;39674;59.860;30.672;2023-02-10T15:24:43;99712.59;;;-0.46;100.00
53758;BME280;39674;59.860;30.672;2023-02-10T15:27:32;99742.81;;;-0.45;100.00
53758;BME280;39674;59.860;30.672;2023-02-10T15:33:31;99738.47;;;-0.43;100.00
53758;BME280;39674;59.860;30.672;2023-02-10T15:36:21;99757.50;;;-0.43;100.00
53758;BME280;39674;59.860;30.672;2023-02-10T15:38:59;99773.91;;;-0.42;100.00
53758;BME280;39674;59.860;30.672;2023-02-10T15:41:56;99769.69;;;-0.46;100.00
53758;BME280;39674;59.860;30.672;2023-02-10T15:45:03;99780.81;;;-0.41;100.00
53758;BME280;39674;59.860;30.672;2023-02-10T15:48:00;99784.25;;;-0.41;100.00
53758;BME280;39674;59.860;30.672;2023-02-10T15:50:38;99791.19;;;-0.41;100.00
53758;BME280;39674;59.860;30.672;2023-02-10T15:53:18;99798.13;;;-0.43;100.00
53758;BME280;39674;59.860;30.672;2023-02-10T15:55:56;99807.69;;;-0.45;100.00
53758;BME280;39674;59.860;30.672;2023-02-10T15:58:28;99802.50;;;-0.44;100.00
53758;BME280;39674;59.860;30.672;2023-02-10T16:01:00;99797.31;;;-0.45;100.00
53758;BME280;39674;59.860;30.672;2023-02-10T16:03:32;99821.56;;;-0.48;100.00
53758;BME280;39674;59.860;30.672;2023-02-10T16:06:05;99839.72;;;-0.46;100.00
53758;BME280;39674;59.860;30.672;2023-02-10T16:08:36;99831.13;;;-0.49;100.00
53758;BME280;39674;59.860;30.672;2023-02-10T16:11:16;99837.25;;;-0.53;100.00
53758;BME280;39674;59.860;30.672;2023-02-10T16:14:10;99860.53;;;-0.50;100.00
53758;BME280;39674;59.860;30.672;2023-02-10T16:16:42;99859.72;;;-0.53;100.00
53758;BME280;39674;59.860;30.672;2023-02-10T16:19:42;99863.16;;;-0.51;100.00
53758;BME280;39674;59.860;30.672;2023-02-10T16:22:38;99866.59;;;-0.51;100.00
53758;BME280;39674;59.860;30.672;2023-02-10T16:25:12;99882.16;;;-0.51;100.00
53758;BME280;39674;59.860;30.672;2023-02-10T16:28:04;99867.59;;;-0.58;100.00
53758;BME280;39674;59.860;30.672;2023-02-10T16:30:36;99884.94;;;-0.60;100.00
53758;BME280;39674;59.860;30.672;2023-02-10T16:33:10;99879.75;;;-0.60;100.00
53758;BME280;39674;59.860;30.672;2023-02-10T16:35:40;99908.25;;;-0.58;100.00
53758;BME280;39674;59.860;30.672;2023-02-10T16:38:25;99900.59;;;-0.65;100.00
53758;BME280;39674;59.860;30.672;2023-02-10T16:41:13;99911.13;;;-0.72;100.00
53758;BME280;39674;59.860;30.672;2023-02-10T16:43:55;99906.72;;;-0.69;100.00
53758;BME280;39674;59.860;30.672;2023-02-10T16:46:27;99924.88;;;-0.70;100.00
53758;BME280;39674;59.860;30.672;2023-02-10T16:49:02;99934.53;;;-0.77;100.00
53758;BME280;39674;59.860;30.672;2023-02-10T16:51:43;99938.81;;;-0.74;100.00
53758;BME280;39674;59.860;30.672;2023-02-10T16:54:15;99938.81;;;-0.74;100.00
53758;BME280;39674;59.860;30.672;2023-02-10T16:56:51;99947.47;;;-0.75;100.00
53758;BME280;39674;59.860;30.672;2023-02-10T16:59:24;99944.03;;;-0.77;100.00
53758;BME280;39674;59.860;30.672;2023-02-10T17:02:10;99959.47;;;-0.71;100.00
53758;BME280;39674;59.860;30.672;2023-02-10T17:04:48;99949.94;;;-0.69;100.00
53758;BME280;39674;59.860;30.672;2023-02-10T17:07:33;99968.09;;;-0.69;100.00
53758;BME280;39674;59.860;30.672;2023-02-10T17:10:11;99961.25;;;-0.73;100.00
53758;BME280;39674;59.860;30.672;2023-02-10T17:12:47;99962.97;;;-0.72;100.00
53758;BME280;39674;59.860;30.672;2023-02-10T17:15:18;99971.53;;;-0.67;100.00
53758;BME280;39674;59.860;30.672;2023-02-10T17:17:48;99995.78;;;-0.71;100.00
53758;BME280;39674;59.860;30.672;2023-02-10T17:20:21;99999.22;;;-0.69;100.00
53758;BME280;39674;59.860;30.672;2023-02-10T17:23:00;99995.00;;;-0.76;100.00
53758;BME280;39674;59.860;30.672;2023-02-10T17:28:49;100018.44;;;-0.83;100.00
53758;BME280;39674;59.860;30.672;2023-02-10T17:31:32;100008.84;;;-0.77;100.00
53758;BME280;39674;59.860;30.672;2023-02-10T17:34:55;100014.97;;;-0.82;100.00
53758;BME280;39674;59.860;30.672;2023-02-10T17:37:49;100007.16;;;-0.80;100.00
53758;BME280;39674;59.860;30.672;2023-02-10T17:40:44;100014.03;;;-0.76;100.00
53758;BME280;39674;59.860;30.672;2023-02-10T17:43:32;100025.31;;;-0.78;100.00
53758;BME280;39674;59.860;30.672;2023-02-10T17:46:35;100029.69;;;-0.82;100.00
53758;BME280;39674;59.860;30.672;2023-02-10T17:49:17;100052.09;;;-0.78;100.00
53758;BME280;39674;59.860;30.672;2023-02-10T17:51:47;100040.81;;;-0.75;100.00
53758;BME280;39674;59.860;30.672;2023-02-10T17:54:21;100037.34;;;-0.74;100.00
53758;BME280;39674;59.860;30.672;2023-02-10T17:57:09;100042.59;;;-0.79;100.00
53758;BME280;39674;59.860;30.672;2023-02-10T17:59:43;100040.88;;;-0.78;100.00
53758;BME280;39674;59.860;30.672;2023-02-10T18:05:27;100053.81;;;-0.77;100.00
53758;BME280;39674;59.860;30.672;2023-02-10T18:07:59;100061.56;;;-0.75;100.00
53758;BME280;39674;59.860;30.672;2023-02-10T18:10:44;100084.13;;;-0.81;100.00
53758;BME280;39674;59.860;30.672;2023-02-10T18:13:20;100082.38;;;-0.78;100.00
53758;BME280;39674;59.860;30.672;2023-02-10T18:15:53;100074.56;;;-0.77;100.00
53758;BME280;39674;59.860;30.672;2023-02-10T18:18:27;100088.41;;;-0.78;100.00
53758;BME280;39674;59.860;30.672;2023-02-10T18:21:19;100102.22;;;-0.79;100.00
53758;BME280;39674;59.860;30.672;2023-02-10T18:24:25;100105.72;;;-0.82;100.00
53758;BME280;39674;59.860;30.672;2023-02-10T18:30:20;100115.22;;;-0.81;100.00
53758;BME280;39674;59.860;30.672;2023-02-10T18:33:30;100118.66;;;-0.78;100.00
53758;BME280;39674;59.860;30.672;2023-02-10T18:36:42;100127.34;;;-0.83;100.00
53758;BME280;39674;59.860;30.672;2023-02-10T18:44:52;100140.34;;;-0.84;100.00
53758;BME280;39674;59.860;30.672;2023-02-10T18:46:37;100144.66;;;-0.83;100.00
53758;BME280;39674;59.860;30.672;2023-02-10T18:49:33;100149.03;;;-0.87;100.00
53758;BME280;39674;59.860;30.672;2023-02-10T18:52:32;100156.84;;;-0.90;100.00
53758;BME280;39674;59.860;30.672;2023-02-10T18:55:31;100151.63;;;-0.87;100.00
53758;BME280;39674;59.860;30.672;2023-02-10T18:58:30;100147.34;;;-0.89;100.00
53758;BME280;39674;59.860;30.672;2023-02-10T19:01:27;100168.06;;;-0.89;100.00
53758;BME280;39674;59.860;30.672;2023-02-10T19:04:24;100165.50;;;-0.92;100.00
53758;BME280;39674;59.860;30.672;2023-02-10T19:07:02;100162.09;;;-0.96;100.00
53758;BME280;39674;59.860;30.672;2023-02-10T19:09:47;100178.47;;;-0.92;99.82
53758;BME280;39674;59.860;30.672;2023-02-10T19:12:37;100175.91;;;-0.94;99.52
53758;BME280;39674;59.860;30.672;2023-02-10T19:15:31;100181.13;;;-0.97;99.76
53758;BME280;39674;59.860;30.672;2023-02-10T19:19:10;100195.00;;;-1.01;99.83
53758;BME280;39674;59.860;30.672;2023-02-10T19:22:57;100202.75;;;-1.00;98.75
53758;BME280;39674;59.860;30.672;2023-02-10T19:28:58;100218.44;;;-1.10;100.00
53758;BME280;39674;59.860;30.672;2023-02-10T19:31:37;100216.75;;;-1.11;100.00
53758;BME280;39674;59.860;30.672;2023-02-10T19:34:08;100223.63;;;-1.09;100.00
53758;BME280;39674;59.860;30.672;2023-02-10T19:37:15;100221.06;;;-1.14;99.65
53758;BME280;39674;59.860;30.672;2023-02-10T19:40:01;100228.06;;;-1.22;100.00
53758;BME280;39674;59.860;30.672;2023-02-10T19:42:41;100240.16;;;-1.21;100.00
53758;BME280;39674;59.860;30.672;2023-02-10T19:48:22;100257.50;;;-1.26;100.00
53758;BME280;39674;59.860;30.672;2023-02-10T19:51:12;100262.72;;;-1.32;100.00
53758;BME280;39674;59.860;30.672;2023-02-10T19:53:51;100262.75;;;-1.35;100.00
53758;BME280;39674;59.860;30.672;2023-02-10T19:56:20;100268.84;;;-1.39;100.00
53758;BME280;39674;59.860;30.672;2023-02-10T19:58:59;100274.91;;;-1.42;100.00
53758;BME280;39674;59.860;30.672;2023-02-10T20:02:35;100291.31;;;-1.43;100.00
53758;BME280;39674;59.860;30.672;2023-02-10T20:05:02;100294.00;;;-1.51;100.00
53758;BME280;39674;59.860;30.672;2023-02-10T20:07:56;100298.34;;;-1.54;100.00
53758;BME280;39674;59.860;30.672;2023-02-10T20:11:02;100311.31;;;-1.57;100.00
53758;BME280;39674;59.860;30.672;2023-02-10T20:24:02;100329.53;;;-1.67;100.00
53758;BME280;39674;59.860;30.672;2023-02-10T20:26:35;100327.78;;;-1.68;100.00
53758;BME280;39674;59.860;30.672;2023-02-10T20:29:05;100338.19;;;-1.72;100.00
53758;BME280;39674;59.860;30.672;2023-02-10T20:31:40;100339.03;;;-1.73;100.00
53758;BME280;39674;59.860;30.672;2023-02-10T20:34:14;100348.53;;;-1.75;100.00
53758;BME280;39674;59.860;30.672;2023-02-10T20:36:53;100347.69;;;-1.74;100.00
53758;BME280;39674;59.860;30.672;2023-02-10T20:39:26;100337.34;;;-1.78;100.00
53758;BME280;39674;59.860;30.672;2023-02-10T20:42:17;100351.19;;;-1.80;100.00
53758;BME280;39674;59.860;30.672;2023-02-10T20:44:55;100359.78;;;-1.76;100.00
53758;BME280;39674;59.860;30.672;2023-02-10T20:47:32;100366.75;;;-1.86;100.00
53758;BME280;39674;59.860;30.672;2023-02-10T20:50:03;100363.28;;;-1.84;100.00
53758;BME280;39674;59.860;30.672;2023-02-10T20:52:48;100352.94;;;-1.84;100.00
53758;BME280;39674;59.860;30.672;2023-02-10T20:55:30;100369.31;;;-1.88;100.00
53758;BME280;39674;59.860;30.672;2023-02-10T20:58:03;100376.25;;;-1.91;100.00
53758;BME280;39674;59.860;30.672;2023-02-10T21:00:33;100376.28;;;-1.90;100.00
53758;BME280;39674;59.860;30.672;2023-02-10T21:03:03;100382.31;;;-1.91;100.00
53758;BME280;39674;59.860;30.672;2023-02-10T21:05:33;100387.50;;;-1.94;100.00
53758;BME280;39674;59.860;30.672;2023-02-10T21:08:24;100396.13;;;-1.95;100.00
53758;BME280;39674;59.860;30.672;2023-02-10T21:11:01;100383.19;;;-1.94;100.00
53758;BME280;39674;59.860;30.672;2023-02-10T21:13:31;100399.59;;;-1.99;100.00
53758;BME280;39674;59.860;30.672;2023-02-10T21:16:04;100409.09;;;-2.01;100.00
53758;BME280;39674;59.860;30.672;2023-02-10T21:18:43;100410.81;;;-2.00;100.00
53758;BME280;39674;59.860;30.672;2023-02-10T21:21:14;100417.72;;;-2.04;100.00
53758;BME280;39674;59.860;30.672;2023-02-10T21:23:47;100412.56;;;-2.04;100.00
53758;BME280;39674;59.860;30.672;2023-02-10T21:26:33;100407.38;;;-2.08;100.00
53758;BME280;39674;59.860;30.672;2023-02-10T21:29:11;100413.44;;;-2.06;100.00
53758;BME280;39674;59.860;30.672;2023-02-10T21:31:42;100418.63;;;-2.10;100.00
53758;BME280;39674;59.860;30.672;2023-02-10T21:34:13;100413.47;;;-2.13;100.00
53758;BME280;39674;59.860;30.672;2023-02-10T21:36:42;100405.72;;;-2.14;100.00
53758;BME280;39674;59.860;30.672;2023-02-10T21:39:11;100411.75;;;-2.17;100.00
53758;BME280;39674;59.860;30.672;2023-02-10T21:41:45;100410.88;;;-2.13;100.00
53758;BME280;39674;59.860;30.672;2023-02-10T21:44:18;100421.25;;;-2.20;100.00
53758;BME280;39674;59.860;30.672;2023-02-10T21:46:51;100422.97;;;-2.18;100.00
53758;BME280;39674;59.860;30.672;2023-02-10T21:49:30;100428.19;;;-2.24;100.00
53758;BME280;39674;59.860;30.672;2023-02-10T21:52:08;100424.72;;;-2.24;100.00
53758;BME280;39674;59.860;30.672;2023-02-10T21:54:41;100441.09;;;-2.24;100.00
53758;BME280;39674;59.860;30.672;2023-02-10T21:57:34;100445.44;;;-2.28;100.00
53758;BME280;39674;59.860;30.672;2023-02-10T22:00:09;100441.09;;;-2.27;100.00
53758;BME280;39674;59.860;30.672;2023-02-10T22:02:55;100440.28;;;-2.29;100.00
53758;BME280;39674;59.860;30.672;2023-02-10T22:05:27;100447.16;;;-2.34;100.00
53758;BME280;39674;59.860;30.672;2023-02-10T22:08:01;100449.75;;;-2.34;100.00
53758;BME280;39674;59.860;30.672;2023-02-10T22:10:30;100452.34;;;-2.33;100.00
53758;BME280;39674;59.860;30.672;2023-02-10T22:13:02;100451.50;;;-2.36;100.00
53758;BME280;39674;59.860;30.672;2023-02-10T22:15:30;100452.34;;;-2.37;100.00
53758;BME280;39674;59.860;30.672;2023-02-10T22:18:01;100452.34;;;-2.34;100.00
53758;BME280;39674;59.860;30.672;2023-02-10T22:20:32;100454.06;;;-2.38;100.00
53758;BME280;39674;59.860;30.672;2023-02-10T22:23:03;100467.88;;;-2.40;100.00
53758;BME280;39674;59.860;30.672;2023-02-10T22:25:33;100461.84;;;-2.43;100.00
53758;BME280;39674;59.860;30.672;2023-02-10T22:31:00;100461.84;;;-2.43;100.00
53758;BME280;39674;59.860;30.672;2023-02-10T22:33:34;100461.00;;;-2.42;100.00
53758;BME280;39674;59.860;30.672;2023-02-10T22:36:11;100460.13;;;-2.47;100.00
53758;BME280;39674;59.860;30.672;2023-02-10T22:38:49;100464.44;;;-2.46;100.00
53758;BME280;39674;59.860;30.672;2023-02-10T22:41:19;100463.56;;;-2.48;100.00
53758;BME280;39674;59.860;30.672;2023-02-10T22:43:57;100468.75;;;-2.51;100.00
53758;BME280;39674;59.860;30.672;2023-02-10T22:46:30;100468.75;;;-2.54;100.00
53758;BME280;39674;59.860;30.672;2023-02-10T22:49:03;100466.19;;;-2.52;100.00
53758;BME280;39674;59.860;30.672;2023-02-10T22:51:40;100467.03;;;-2.50;100.00
53758;BME280;39674;59.860;30.672;2023-02-10T22:54:14;100462.72;;;-2.53;100.00
53758;BME280;39674;59.860;30.672;2023-02-10T22:56:47;100460.16;;;-2.56;100.00
53758;BME280;39674;59.860;30.672;2023-02-10T22:59:28;100454.97;;;-2.50;100.00
53758;BME280;39674;59.860;30.672;2023-02-10T23:01:57;100454.97;;;-2.56;100.00
53758;BME280;39674;59.860;30.672;2023-02-10T23:04:42;100459.28;;;-2.55;100.00
53758;BME280;39674;59.860;30.672;2023-02-10T23:07:18;100470.50;;;-2.56;100.00
53758;BME280;39674;59.860;30.672;2023-02-10T23:09:57;100459.28;;;-2.53;100.00
53758;BME280;39674;59.860;30.672;2023-02-10T23:12:36;100468.75;;;-2.51;100.00
53758;BME280;39674;59.860;30.672;2023-02-10T23:15:28;100469.63;;;-2.58;100.00
53758;BME280;39674;59.860;30.672;2023-02-10T23:18:03;100480.81;;;-2.53;100.00
53758;BME280;39674;59.860;30.672;2023-02-10T23:20:48;100481.69;;;-2.55;100.00
53758;BME280;39674;59.860;30.672;2023-02-10T23:23:21;100478.25;;;-2.54;100.00
53758;BME280;39674;59.860;30.672;2023-02-10T23:25:52;100477.38;;;-2.52;100.00
53758;BME280;39674;59.860;30.672;2023-02-10T23:28:35;100473.91;;;-2.54;100.00
53758;BME280;39674;59.860;30.672;2023-02-10T23:31:11;100470.50;;;-2.56;100.00
53758;BME280;39674;59.860;30.672;2023-02-10T23:33:45;100468.75;;;-2.60;100.00
53758;BME280;39674;59.860;30.672;2023-02-10T23:36:16;100472.22;;;-2.63;100.00
53758;BME280;39674;59.860;30.672;2023-02-10T23:38:57;100468.75;;;-2.60;100.00
53758;BME280;39674;59.860;30.672;2023-02-10T23:41:50;100470.50;;;-2.70;100.00
53758;BME280;39674;59.860;30.672;2023-02-10T23:44:19;100474.81;;;-2.74;100.00
53758;BME280;39674;59.860;30.672;2023-02-10T23:49:39;100473.09;;;-2.68;100.00
53758;BME280;39674;59.860;30.672;2023-02-10T23:52:21;100473.09;;;-2.75;100.00
53758;BME280;39674;59.860;30.672;2023-02-10T23:54:51;100467.06;;;-2.70;100.00
53758;BME280;39674;59.860;30.672;2023-02-10T23:57:24;100472.22;;;-2.70;100.00
53758;BME280;39674;59.860;30.672;2023-02-10T23:59:55;100466.19;;;-2.72;100.00
